createdAt,value
2018-06-04T00:01:44.412Z,19.53
2018-06-04T00:04:21.838Z,19.48
2018-06-04T00:07:01.179Z,19.43
2018-06-04T00:09:38.335Z,19.41
2018-06-04T00:12:18.440Z,19.33
2018-06-04T00:14:57.400Z,19.29
2018-06-04T00:17:35.891Z,19.24
2018-06-04T00:20:16.554Z,19.19
2018-06-04T00:22:54.897Z,19.15
2018-06-04T00:25:34.117Z,19.10
2018-06-04T00:28:13.535Z,19.06
2018-06-04T00:30:52.773Z,19.07
2018-06-04T00:33:32.338Z,19.04
2018-06-04T00:36:10.771Z,19.06
2018-06-04T00:38:48.954Z,19.07
2018-06-04T00:41:27.897Z,19.02
2018-06-04T00:44:07.139Z,18.96
2018-06-04T00:46:45.999Z,18.85
2018-06-04T00:49:25.272Z,18.80
2018-06-04T00:52:04.150Z,18.80
2018-06-04T00:54:43.249Z,18.79
2018-06-04T00:57:23.391Z,18.78
2018-06-04T01:00:01.815Z,18.79
2018-06-04T01:02:41.638Z,18.76
2018-06-04T01:05:21.235Z,18.76
2018-06-04T01:08:01.330Z,18.73
2018-06-04T01:10:39.932Z,18.75
2018-06-04T01:13:21.411Z,18.72
2018-06-04T01:16:00.036Z,18.70
2018-06-04T01:18:38.381Z,18.67
2018-06-04T01:21:16.852Z,18.66
2018-06-04T01:23:55.693Z,18.60
2018-06-04T01:26:34.236Z,18.53
2018-06-04T01:29:13.519Z,18.54
2018-06-04T01:31:52.475Z,18.58
2018-06-04T01:34:32.253Z,18.56
2018-06-04T01:37:11.574Z,18.56
2018-06-04T01:39:50.254Z,18.56
2018-06-04T01:42:31.055Z,18.55
2018-06-04T01:45:09.850Z,18.50
2018-06-04T01:47:47.954Z,18.46
2018-06-04T01:50:26.233Z,18.40
2018-06-04T01:53:06.178Z,18.39
2018-06-04T01:55:45.058Z,18.38
2018-06-04T03:06:38.563Z,17.59
2018-06-04T03:09:17.761Z,17.58
2018-06-04T03:12:02.000Z,17.56
2018-06-04T03:14:42.105Z,17.56
2018-06-04T03:17:21.524Z,17.55
2018-06-04T03:20:00.860Z,17.57
2018-06-04T03:22:40.860Z,17.57
2018-06-04T03:25:21.023Z,17.57
2018-06-04T03:27:59.243Z,17.59
2018-06-04T03:30:37.803Z,17.58
2018-06-04T03:33:19.726Z,17.56
2018-06-04T03:35:59.760Z,17.55
2018-06-04T03:38:41.825Z,17.52
2018-06-04T03:41:21.942Z,17.53
2018-06-04T03:44:02.169Z,17.54
2018-06-04T03:46:41.266Z,17.56
2018-06-04T03:49:23.746Z,17.60
2018-06-04T03:52:02.780Z,17.60
2018-06-04T03:54:44.599Z,17.61
2018-06-04T03:57:28.064Z,17.62
2018-06-04T04:00:09.978Z,17.62
2018-06-04T04:02:49.611Z,17.63
2018-06-04T04:05:29.762Z,17.65
2018-06-04T04:08:08.818Z,17.62
2018-06-04T05:22:12.047Z,18.81
2018-06-04T05:24:54.624Z,18.92
2018-06-04T05:27:34.987Z,19.01
2018-06-04T05:30:16.529Z,19.13
2018-06-04T05:33:00.381Z,19.25
2018-06-04T05:35:49.624Z,19.35
2018-06-04T05:38:31.850Z,19.45
2018-06-04T05:41:17.103Z,19.59
2018-06-04T05:43:59.926Z,19.71
2018-06-04T05:46:38.703Z,19.82
2018-06-04T05:49:20.101Z,19.92
2018-06-04T05:51:58.589Z,20.03
2018-06-04T05:54:38.546Z,20.13
2018-06-04T05:57:17.224Z,20.22
2018-06-04T05:59:59.790Z,20.30
2018-06-04T06:02:42.267Z,20.42
2018-06-04T06:05:28.111Z,20.53
2018-06-04T06:08:09.270Z,20.63
2018-06-04T06:10:49.965Z,20.73
2018-06-04T06:13:30.548Z,20.86
2018-06-04T06:16:12.753Z,20.97
2018-06-04T06:18:50.768Z,21.09
2018-06-04T06:21:28.231Z,21.21
2018-06-04T06:24:09.488Z,21.36
2018-06-04T06:26:48.747Z,21.62
2018-06-04T06:29:28.044Z,22.07
2018-06-04T06:32:06.988Z,22.49
2018-06-04T06:34:45.986Z,22.74
2018-06-04T06:37:25.323Z,22.92
2018-06-04T06:40:05.649Z,23.09
2018-06-04T06:42:47.207Z,23.20
2018-06-04T06:45:27.024Z,23.23
2018-06-04T06:48:08.031Z,23.27
2018-06-04T06:50:49.276Z,23.32
2018-06-04T06:53:28.384Z,23.47
2018-06-04T06:56:10.087Z,23.87
2018-06-04T06:58:52.166Z,24.44
2018-06-04T07:01:30.971Z,25.05
2018-06-04T07:04:09.567Z,25.71
2018-06-04T07:06:54.747Z,26.35
2018-06-04T07:09:33.791Z,26.99
2018-06-04T07:12:12.104Z,27.56
2018-06-04T07:14:52.823Z,28.00
2018-06-04T07:17:34.072Z,28.35
2018-06-04T07:20:14.866Z,28.77
2018-06-04T07:22:55.608Z,29.29
2018-06-04T07:25:41.988Z,29.85
2018-06-04T07:28:22.522Z,30.40
2018-06-04T07:31:03.315Z,30.94
2018-06-04T07:33:44.128Z,31.34
2018-06-04T07:36:28.926Z,31.55
2018-06-04T07:39:12.568Z,31.82
2018-06-04T07:41:51.008Z,32.04
2018-06-04T07:44:32.494Z,32.27
2018-06-04T07:47:20.110Z,32.55
2018-06-04T07:49:58.294Z,32.67
2018-06-04T07:52:37.126Z,32.74
2018-06-04T07:55:19.933Z,32.90
2018-06-04T07:58:00.667Z,33.00
2018-06-04T08:00:45.691Z,33.11
2018-06-04T08:03:23.984Z,33.19
2018-06-04T08:06:03.745Z,33.25
2018-06-04T08:08:43.243Z,33.30
2018-06-04T08:11:23.130Z,33.36
2018-06-04T08:14:01.452Z,33.42
2018-06-04T08:16:39.786Z,33.46
2018-06-04T08:19:19.062Z,33.53
2018-06-04T08:22:01.090Z,33.62
2018-06-04T08:24:40.974Z,33.63
2018-06-04T08:27:19.884Z,33.64
2018-06-04T08:30:08.511Z,33.28
2018-06-04T08:32:46.523Z,32.61
2018-06-04T08:35:24.547Z,31.93
2018-06-04T08:38:02.545Z,31.24
2018-06-04T08:40:41.587Z,30.60
2018-06-04T08:43:26.484Z,30.08
2018-06-04T08:46:05.194Z,29.61
2018-06-04T08:48:49.070Z,29.20
2018-06-04T08:51:31.667Z,28.81
2018-06-04T08:54:16.128Z,28.55
2018-06-04T08:56:58.550Z,28.74
2018-06-04T08:59:48.868Z,28.89
2018-06-04T09:02:30.487Z,28.83
2018-06-04T09:05:15.550Z,28.70
2018-06-04T09:07:55.652Z,28.51
2018-06-04T09:10:38.413Z,28.33
2018-06-04T09:13:21.845Z,28.44
2018-06-04T09:16:01.407Z,28.79
2018-06-04T09:18:43.029Z,29.15
2018-06-04T09:21:24.807Z,29.29
2018-06-04T09:24:01.764Z,29.23
2018-06-04T09:26:42.708Z,29.06
2018-06-04T09:29:24.107Z,28.85
2018-06-04T09:32:04.448Z,28.76
2018-06-04T09:34:42.986Z,29.07
2018-06-04T09:37:25.465Z,29.24
2018-06-04T09:40:08.452Z,29.14
2018-06-04T09:42:55.729Z,29.30
2018-06-04T09:45:35.691Z,29.81
2018-06-04T09:48:17.154Z,30.32
2018-06-04T09:50:59.228Z,30.69
2018-06-04T09:53:43.585Z,30.63
2018-06-04T09:56:23.829Z,30.35
2018-06-04T09:59:06.889Z,30.08
2018-06-04T10:01:50.244Z,29.77
2018-06-04T10:04:31.448Z,29.51
2018-06-04T10:07:12.572Z,29.29
2018-06-04T10:09:50.480Z,29.06
2018-06-04T10:12:36.004Z,28.93
2018-06-04T10:15:18.324Z,28.84
2018-06-04T10:17:56.869Z,28.77
2018-06-04T10:20:37.582Z,28.65
2018-06-04T10:23:16.511Z,28.50
2018-06-04T10:26:04.327Z,28.39
2018-06-04T10:28:45.488Z,28.30
2018-06-04T10:31:30.443Z,28.19
2018-06-04T10:34:15.205Z,28.05
2018-06-04T10:37:00.107Z,27.95
2018-06-04T10:39:38.388Z,27.86
2018-06-04T10:42:21.784Z,27.85
2018-06-04T10:45:10.045Z,27.87
2018-06-04T10:47:53.046Z,28.00
2018-06-04T10:50:35.208Z,28.43
2018-06-04T10:53:20.363Z,29.09
2018-06-04T10:56:01.447Z,29.61
2018-06-04T10:58:42.905Z,30.04
2018-06-04T11:01:23.525Z,30.49
2018-06-04T11:04:01.705Z,30.96
2018-06-04T11:06:45.006Z,31.37
2018-06-04T11:09:23.264Z,31.73
2018-06-04T11:12:02.769Z,32.01
2018-06-04T11:14:42.906Z,32.18
2018-06-04T11:17:25.750Z,32.39
2018-06-04T11:20:10.548Z,32.60
2018-06-04T11:22:50.090Z,32.81
2018-06-04T11:25:34.989Z,33.04
2018-06-04T11:28:14.031Z,33.23
2018-06-04T11:30:52.027Z,33.46
2018-06-04T12:50:53.394Z,34.72
2018-06-04T12:53:36.240Z,34.72
2018-06-04T12:56:17.259Z,34.80
2018-06-04T12:58:55.896Z,34.74
2018-06-04T13:01:40.052Z,34.69
2018-06-04T13:04:21.458Z,34.72
2018-06-04T13:07:01.632Z,34.74
2018-06-04T13:09:44.939Z,34.81
2018-06-04T13:12:24.452Z,34.88
2018-06-04T13:15:06.335Z,34.77
2018-06-04T13:17:45.250Z,34.28
2018-06-04T13:20:32.278Z,33.79
2018-06-04T13:23:11.532Z,33.62
2018-06-04T13:25:51.790Z,33.56
2018-06-04T14:58:04.569Z,32.55
2018-06-04T15:00:46.840Z,32.83
2018-06-04T15:03:32.495Z,33.11
2018-06-04T15:06:11.080Z,33.37
2018-06-04T15:08:52.358Z,33.49
2018-06-04T15:11:29.854Z,33.66
2018-06-04T15:14:11.979Z,33.84
2018-06-04T15:16:53.759Z,33.97
2018-06-04T15:19:34.632Z,33.96
2018-06-04T15:22:18.913Z,33.96
2018-06-04T15:24:59.836Z,33.90
2018-06-04T16:39:04.427Z,31.08
2018-06-04T16:41:44.747Z,30.93
2018-06-04T16:44:24.800Z,30.84
2018-06-04T16:47:06.602Z,30.78
2018-06-04T16:49:47.461Z,30.71
2018-06-04T16:52:25.962Z,30.60
2018-06-04T16:55:12.460Z,30.57
2018-06-04T16:57:54.805Z,30.48
2018-06-04T17:00:40.142Z,30.37
2018-06-04T17:03:17.758Z,30.27
2018-06-04T17:06:06.379Z,30.25
2018-06-04T17:08:47.782Z,30.21
2018-06-04T17:11:29.383Z,30.07
2018-06-04T17:14:19.365Z,29.92
2018-06-04T17:16:57.461Z,29.75
2018-06-04T17:19:38.505Z,29.67
2018-06-04T17:22:22.757Z,29.67
2018-06-04T17:25:03.002Z,29.70
2018-06-04T17:27:46.120Z,29.70
2018-06-04T17:30:25.720Z,29.60
2018-06-04T17:33:07.881Z,29.57
2018-06-04T17:35:50.867Z,29.52
2018-06-04T17:38:32.579Z,29.50
2018-06-04T17:41:10.490Z,29.51
2018-06-04T17:43:48.119Z,29.56
2018-06-04T17:46:30.044Z,29.55
2018-06-04T19:03:46.248Z,26.92
2018-06-04T19:06:32.446Z,26.79
2018-06-04T19:09:17.476Z,26.69
2018-06-04T19:11:58.337Z,26.59
2018-06-04T19:14:40.739Z,26.50
2018-06-04T20:43:58.041Z,23.97
2018-06-04T20:46:36.455Z,23.92
2018-06-04T20:49:14.853Z,23.90
2018-06-04T20:51:52.404Z,23.85
2018-06-04T20:54:31.354Z,23.83
2018-06-04T20:57:11.394Z,23.82
2018-06-04T20:59:49.571Z,23.81
2018-06-04T21:02:32.275Z,23.80
2018-06-04T21:05:11.651Z,23.80
2018-06-04T21:07:51.732Z,23.79
2018-06-04T21:10:31.793Z,23.78
2018-06-04T21:13:09.773Z,23.77
2018-06-04T21:15:49.233Z,23.74
2018-06-04T21:18:28.795Z,23.71
2018-06-04T21:21:07.435Z,23.68
2018-06-04T21:23:45.954Z,23.67
2018-06-04T21:26:22.953Z,23.65
2018-06-04T21:29:02.014Z,23.61
2018-06-04T21:31:43.457Z,23.58
2018-06-04T21:34:23.679Z,23.57
2018-06-04T21:37:01.234Z,23.55
2018-06-04T21:39:40.234Z,23.51
2018-06-04T21:42:19.134Z,23.47
2018-06-04T21:44:59.576Z,23.41
2018-06-04T21:47:36.755Z,23.38
2018-06-04T22:33:03.772Z,22.43
2018-06-04T22:35:42.171Z,22.39
2018-06-04T22:38:23.138Z,22.33
2018-06-04T22:41:02.449Z,22.28
2018-06-04T22:43:41.175Z,22.22
2018-06-04T22:46:20.815Z,22.12
2018-06-04T22:48:59.470Z,22.06
2018-06-04T22:51:38.230Z,21.93
2018-06-04T22:54:17.798Z,21.81
2018-06-04T22:56:57.737Z,21.75
2018-06-04T22:59:37.180Z,21.75
2018-06-04T23:02:16.690Z,21.75
2018-06-04T23:04:56.771Z,21.71
2018-06-04T23:07:39.701Z,21.68
2018-06-04T23:10:16.793Z,21.66
2018-06-04T23:12:58.674Z,21.60
2018-06-04T23:15:38.735Z,21.53
2018-06-04T23:18:17.633Z,21.42
2018-06-04T23:20:56.291Z,21.34
2018-06-04T23:23:35.511Z,21.29
2018-06-04T23:26:14.773Z,21.24
2018-06-04T23:28:55.715Z,21.21
2018-06-04T23:31:35.633Z,21.17
2018-06-04T23:34:14.335Z,21.11
2018-06-04T23:36:52.900Z,21.03
2018-06-04T23:39:30.013Z,20.98
2018-06-04T23:42:10.540Z,20.89
2018-06-04T23:44:48.392Z,20.86
2018-06-04T23:47:27.633Z,20.80
2018-06-04T23:50:07.629Z,20.74
2018-06-04T23:52:47.016Z,20.71
2018-06-04T23:55:27.334Z,20.69
2018-06-04T23:58:06.772Z,20.69
